Time;durP1;ratioP1;P1;durP2;ratioP2;P2;SDS_P1;SDS_P2;PMS_P1;PMS_P2;Temp;Humidity;BMP_temperature;BMP_pressure;BME280_temperature;BME280_humidity;BME280_pressure;Samples;Min_cycle;Max_cycle;Signal;HPM_P1;HPM_P2
2023/04/17 04:21:27;;;;;;;2.60;2.50;;;6.70;99.90;;;;;;6208506;22;20200;-71
2023/04/17 04:23:55;;;;;;;2.25;2.15;;;6.60;99.90;;;;;;6217025;23;20176;-71
2023/04/17 04:26:23;;;;;;;2.22;2.15;;;6.60;99.90;;;;;;6217009;23;20200;-72
2023/04/17 04:28:49;;;;;;;3.05;2.85;;;6.60;99.90;;;;;;6216748;23;20235;-72
2023/04/17 04:31:18;;;;;;;2.92;2.70;;;6.60;99.90;;;;;;6216458;23;20565;-72
2023/04/17 04:33:44;;;;;;;2.40;2.30;;;6.60;99.90;;;;;;6217466;23;20176;-71
2023/04/17 04:36:12;;;;;;;3.15;2.95;;;6.60;99.90;;;;;;6216612;23;20497;-71
2023/04/17 04:38:40;;;;;;;3.20;3.00;;;6.60;99.90;;;;;;6217099;23;20576;-71
2023/04/17 04:41:09;;;;;;;3.03;2.83;;;6.50;99.90;;;;;;6217198;23;20502;-72
2023/04/17 04:43:36;;;;;;;3.15;2.88;;;6.50;99.90;;;;;;6217126;23;20180;-72
2023/04/17 04:46:03;;;;;;;2.53;2.33;;;6.50;99.90;;;;;;6216335;23;20649;-72
2023/04/17 04:48:30;;;;;;;2.45;2.35;;;6.50;99.90;;;;;;6216881;23;20173;-72
2023/04/17 04:50:56;;;;;;;2.70;2.60;;;6.50;99.90;;;;;;6216580;23;20696;-72
2023/04/17 04:53:23;;;;;;;3.00;2.90;;;6.50;99.90;;;;;;6216441;23;20511;-73
2023/04/17 04:55:51;;;;;;;2.75;2.60;;;6.50;99.90;;;;;;6216796;23;20173;-72
2023/04/17 04:58:28;;;;;;;2.63;2.53;;;6.50;99.90;;;;;;6216832;23;20173;-73
2023/04/17 05:00:55;;;;;;;2.92;2.75;;;6.50;99.90;;;;;;6216655;23;20219;-71
2023/04/17 05:03:22;;;;;;;4.20;2.80;;;6.50;99.90;;;;;;6216237;23;20646;-71
2023/04/17 05:05:49;;;;;;;2.97;2.78;;;6.50;99.90;;;;;;6216841;23;20234;-70
2023/04/17 05:08:16;;;;;;;3.10;2.80;;;6.50;99.90;;;;;;6216467;23;20753;-74
2023/04/17 05:10:43;;;;;;;3.03;2.90;;;6.40;99.90;;;;;;6216850;23;20235;-73
2023/04/17 10:18:31;;;;;;;0.60;0.60;;;11.50;99.90;;;;;;6182919;22;20612;-71
2023/04/17 10:21:20;;;;;;;1.20;1.10;;;11.50;99.90;;;;;;6244659;23;20665;-72
2023/04/17 10:23:47;;;;;;;1.20;1.13;;;11.40;99.90;;;;;;6246675;22;20259;-70
2023/04/17 10:26:45;;;;;;;1.00;1.00;;;11.30;99.90;;;;;;6245168;23;20172;-70
2023/04/17 10:29:12;;;;;;;1.00;1.00;;;11.20;99.90;;;;;;6246259;22;20194;-71
2023/04/17 10:32:24;;;;;;;0.90;0.90;;;11.20;99.90;;;;;;6246140;23;20648;-70
2023/04/17 10:34:53;;;;;;;1.50;1.40;;;11.40;99.90;;;;;;6246540;22;20160;-71
2023/04/17 10:37:22;;;;;;;1.30;1.30;;;11.50;99.90;;;;;;6247204;23;20152;-71
2023/04/17 10:39:58;;;;;;;1.38;1.38;;;11.90;99.90;;;;;;6246374;22;20181;-71
2023/04/17 10:42:26;;;;;;;1.70;1.67;;;12.20;99.90;;;;;;6246646;22;20198;-72
2023/04/17 10:44:58;;;;;;;1.95;1.50;;;12.50;99.90;;;;;;6246365;23;20176;-72
2023/04/17 10:47:31;;;;;;;1.65;1.65;;;12.70;99.90;;;;;;6246308;22;20215;-71
2023/04/17 10:50:02;;;;;;;2.35;1.83;;;12.70;99.90;;;;;;6246011;23;20692;-72
2023/04/17 10:52:50;;;;;;;1.85;1.48;;;12.80;99.90;;;;;;6245920;23;20222;-72
2023/04/17 10:55:20;;;;;;;1.40;1.40;;;13.00;99.90;;;;;;6237059;22;20226;-73
2023/04/17 10:57:59;;;;;;;1.60;1.60;;;12.80;99.90;;;;;;6246580;22;20192;-72
2023/04/17 11:00:33;;;;;;;1.50;1.50;;;12.40;99.90;;;;;;6245998;23;20533;-72
2023/04/17 11:03:01;;;;;;;1.10;1.10;;;12.30;99.90;;;;;;6246354;23;20156;-72
2023/04/17 11:05:31;;;;;;;1.38;1.38;;;12.20;99.90;;;;;;6246051;23;20176;-72
2023/04/17 11:07:57;;;;;;;1.95;1.20;;;11.70;99.90;;;;;;6246410;22;20250;-72
2023/04/17 11:10:25;;;;;;;1.15;1.15;;;11.60;99.90;;;;;;6246104;23;20180;-72
2023/04/17 11:12:55;;;;;;;0.93;0.93;;;11.60;99.90;;;;;;6246257;23;20194;-72
2023/04/17 11:15:29;;;;;;;0.80;0.80;;;11.70;99.90;;;;;;6246178;23;20161;-73
2023/04/17 11:17:56;;;;;;;1.05;1.05;;;11.90;99.90;;;;;;6246025;22;20203;-72
2023/04/17 11:20:25;;;;;;;1.27;1.27;;;12.20;99.90;;;;;;6245732;23;20509;-72
2023/04/17 11:22:53;;;;;;;1.40;1.40;;;12.50;99.90;;;;;;6246146;23;20163;-73
2023/04/17 11:25:21;;;;;;;1.10;1.10;;;;;;;;;;6246254;23;20172;-73
2023/04/17 11:27:51;;;;;;;1.20;1.20;;;13.10;99.90;;;;;;6246045;22;20235;-73
2023/04/17 11:30:25;;;;;;;0.90;0.90;;;13.40;99.90;;;;;;6246935;23;20502;-74
2023/04/17 11:32:52;;;;;;;1.20;1.20;;;13.50;99.90;;;;;;6246076;22;20160;-73
2023/04/17 11:35:23;;;;;;;1.13;1.13;;;13.40;99.90;;;;;;6246114;22;20183;-72
2023/04/17 11:38:10;;;;;;;1.10;1.10;;;13.30;99.90;;;;;;6245655;22;20669;-71
2023/04/17 11:40:42;;;;;;;1.65;1.25;;;13.10;99.90;;;;;;6246099;23;20156;-73
2023/04/17 11:43:09;;;;;;;2.40;2.30;;;13.10;99.90;;;;;;6246210;23;20168;-72
2023/04/17 11:45:36;;;;;;;1.63;1.63;;;12.90;99.90;;;;;;6247746;23;20242;-73
2023/04/17 11:48:03;;;;;;;1.30;1.30;;;12.60;99.90;;;;;;6247630;22;20196;-72
2023/04/17 11:50:31;;;;;;;1.77;1.77;;;12.30;99.90;;;;;;6247740;23;20172;-72
2023/04/17 11:52:59;;;;;;;1.40;1.35;;;12.10;99.90;;;;;;6247528;23;20510;-72
2023/04/17 11:55:30;;;;;;;1.55;1.55;;;11.90;99.90;;;;;;6247669;23;20226;-73
2023/04/17 11:57:58;;;;;;;1.83;1.83;;;12.00;99.90;;;;;;6247629;22;20223;-72
2023/04/17 12:00:28;;;;;;;1.63;1.63;;;12.10;99.90;;;;;;6247430;23;20176;-72
2023/04/17 12:02:56;;;;;;;1.70;1.70;;;12.00;99.90;;;;;;6247709;23;20239;-72
2023/04/17 12:05:24;;;;;;;1.75;1.75;;;11.70;99.90;;;;;;6247693;22;20176;-73
2023/04/17 12:08:04;;;;;;;1.70;1.70;;;11.30;99.90;;;;;;6247026;22;20657;-73
2023/04/17 12:10:40;;;;;;;1.77;1.67;;;11.10;99.90;;;;;;6247529;23;20183;-73
2023/04/17 12:13:08;;;;;;;1.88;1.70;;;11.30;99.90;;;;;;6247719;23;20164;-73
2023/04/17 12:15:35;;;;;;;1.60;1.60;;;11.20;99.90;;;;;;6247431;23;20172;-74
2023/04/17 12:18:04;;;;;;;1.42;1.42;;;11.40;99.90;;;;;;6247703;22;20223;-73
2023/04/17 12:20:35;;;;;;;2.33;2.30;;;11.40;99.90;;;;;;6246954;23;20199;-73
2023/04/17 12:23:02;;;;;;;2.45;2.35;;;11.10;99.90;;;;;;6247500;23;20606;-73
2023/04/17 12:25:30;;;;;;;2.83;2.63;;;11.20;99.90;;;;;;6250357;23;20180;-73
2023/04/17 12:27:58;;;;;;;2.53;2.38;;;11.40;99.90;;;;;;6248860;22;20723;-72
2023/04/17 12:30:26;;;;;;;2.92;2.72;;;11.80;99.90;;;;;;6247870;22;20176;-72
2023/04/17 12:32:53;;;;;;;1.73;1.73;;;12.20;99.90;;;;;;6248344;23;20469;-73
2023/04/17 12:35:21;;;;;;;2.38;2.17;;;12.30;99.90;;;;;;6246997;23;20629;-74
2023/04/17 12:37:50;;;;;;;2.38;2.00;;;12.50;99.90;;;;;;6246900;22;20668;-73
2023/04/17 12:40:17;;;;;;;2.45;2.25;;;12.50;99.90;;;;;;6258272;23;20180;-73
2023/04/17 12:42:44;;;;;;;2.95;2.75;;;12.60;99.90;;;;;;6254220;23;20171;-72
2023/04/17 12:45:12;;;;;;;1.80;1.70;;;12.60;99.90;;;;;;6247753;23;20256;-73
2023/04/17 12:47:39;;;;;;;1.70;1.70;;;12.60;99.90;;;;;;6247163;22;20192;-73
2023/04/17 12:50:07;;;;;;;1.55;1.55;;;12.80;99.90;;;;;;6247600;23;20176;-73
2023/04/17 12:52:34;;;;;;;1.80;1.70;;;12.90;99.90;;;;;;6247381;23;20183;-74
2023/04/17 12:55:02;;;;;;;1.92;1.92;;;13.00;99.90;;;;;;6247485;23;20238;-74
2023/04/17 12:57:29;;;;;;;1.80;1.80;;;13.10;99.90;;;;;;6247147;22;20168;-73
2023/04/17 12:59:56;;;;;;;1.77;1.67;;;13.40;99.90;;;;;;6247237;23;20238;-73
2023/04/17 13:02:24;;;;;;;1.60;1.60;;;13.70;99.90;;;;;;6246796;23;20545;-73
2023/04/17 13:04:51;;;;;;;1.85;1.75;;;13.90;91.70;;;;;;6247234;23;20179;-73
2023/04/17 13:07:17;;;;;;;1.65;1.65;;;13.60;90.80;;;;;;6247273;23;20176;-74
2023/04/17 13:09:44;;;;;;;1.50;1.50;;;13.40;93.60;;;;;;6247151;22;20192;-73
2023/04/17 13:12:14;;;;;;;1.77;1.73;;;13.10;95.70;;;;;;6246671;23;20633;-73
2023/04/17 13:14:41;;;;;;;1.60;1.60;;;13.00;94.50;;;;;;6247208;23;20180;-74
2023/04/17 13:17:08;;;;;;;1.60;1.30;;;12.80;99.90;;;;;;6247027;23;20195;-74
2023/04/17 13:19:38;;;;;;;1.58;1.58;;;12.80;99.90;;;;;;6247552;22;20199;-73
2023/04/17 13:22:07;;;;;;;1.95;1.80;;;12.60;99.60;;;;;;6247042;23;20206;-73
2023/04/17 13:24:33;;;;;;;2.03;1.92;;;12.80;99.90;;;;;;6247547;22;20176;-74
2023/04/17 13:27:01;;;;;;;2.13;2.00;;;12.90;98.50;;;;;;6247285;23;20180;-73
2023/04/17 13:29:28;;;;;;;1.88;1.77;;;12.90;99.90;;;;;;6251392;22;20578;-73
2023/04/17 13:31:55;;;;;;;1.80;1.65;;;13.20;99.90;;;;;;6255341;23;20528;-73
2023/04/17 13:34:22;;;;;;;1.40;1.40;;;13.40;97.60;;;;;;6253314;23;20529;-73
2023/04/17 13:36:50;;;;;;;1.45;1.40;;;13.80;91.30;;;;;;6246838;23;20184;-74
2023/04/17 13:39:17;;;;;;;1.92;1.83;;;13.50;95.20;;;;;;6250378;22;20210;-73
2023/04/17 13:41:44;;;;;;;1.58;1.48;;;13.60;96.90;;;;;;6252211;23;20638;-74
2023/04/17 13:44:12;;;;;;;1.40;1.40;;;13.10;99.90;;;;;;6258594;23;20195;-74
2023/04/17 13:46:40;;;;;;;1.80;1.80;;;12.50;99.90;;;;;;6259784;23;20176;-74
2023/04/17 13:49:07;;;;;;;1.20;1.20;;;12.00;99.90;;;;;;6253056;22;20484;-73
2023/04/17 13:51:34;;;;;;;1.50;1.50;;;11.70;99.90;;;;;;6252399;22;20207;-73
2023/04/17 13:54:02;;;;;;;1.58;1.30;;;11.50;99.90;;;;;;6252211;23;20676;-72
2023/04/17 13:56:29;;;;;;;1.50;1.50;;;11.60;99.90;;;;;;6247028;23;20187;-73
2023/04/17 13:58:56;;;;;;;1.85;1.77;;;11.70;99.90;;;;;;6246886;22;20196;-73
2023/04/17 14:01:23;;;;;;;1.63;1.55;;;11.90;99.90;;;;;;6247365;23;20176;-72
2023/04/17 14:03:49;;;;;;;1.40;1.40;;;12.00;99.90;;;;;;6247012;23;20180;-72
2023/04/17 14:06:17;;;;;;;1.60;1.60;;;12.20;99.90;;;;;;6247248;23;20172;-72
2023/04/17 14:08:44;;;;;;;1.48;1.48;;;12.60;99.90;;;;;;6246681;22;20195;-73
2023/04/17 14:11:13;;;;;;;1.38;1.38;;;13.10;99.90;;;;;;6247130;22;20199;-72
2023/04/17 14:13:40;;;;;;;1.30;1.30;;;13.60;99.90;;;;;;6247530;23;20202;-72
2023/04/17 14:16:07;;;;;;;1.60;1.58;;;13.80;99.90;;;;;;6247238;23;20172;-72
2023/04/17 14:18:34;;;;;;;2.20;2.10;;;13.30;99.90;;;;;;6247929;22;20219;-72
2023/04/17 14:21:00;;;;;;;2.60;2.40;;;12.00;99.90;;;;;;6247665;23;20545;-72
2023/04/17 14:23:27;;;;;;;2.80;2.70;;;10.90;99.90;;;;;;6247681;23;20206;-73
2023/04/17 14:25:54;;;;;;;3.03;2.92;;;10.00;99.90;;;;;;6247509;23;20172;-73
2023/04/17 14:28:23;;;;;;;2.78;2.63;;;9.60;99.90;;;;;;6247158;22;20195;-73
2023/04/17 14:30:50;;;;;;;2.13;2.08;;;9.40;99.90;;;;;;6246989;23;20180;-73
2023/04/17 14:33:16;;;;;;;2.65;2.45;;;9.20;99.90;;;;;;6246872;22;20183;-74
2023/04/17 14:35:43;;;;;;;2.97;2.78;;;9.10;99.90;;;;;;6247207;23;20164;-71
2023/04/17 14:38:10;;;;;;;2.70;2.60;;;9.00;99.90;;;;;;6246361;22;20680;-73
2023/04/17 14:40:37;;;;;;;1.90;1.88;;;8.90;99.90;;;;;;6247233;23;20498;-72
2023/04/17 14:43:03;;;;;;;2.50;2.40;;;8.90;99.90;;;;;;6247486;23;20183;-72
2023/04/17 14:45:31;;;;;;;2.05;2.05;;;8.90;99.90;;;;;;6248844;23;20176;-72
2023/04/17 14:47:58;;;;;;;2.60;2.50;;;9.00;99.90;;;;;;6248016;22;20203;-72
2023/04/17 14:50:25;;;;;;;3.28;3.17;;;8.90;99.90;;;;;;6247246;23;20176;-72
2023/04/17 14:52:52;;;;;;;3.60;3.40;;;8.90;99.90;;;;;;6246822;23;20172;-73
2023/04/17 14:55:19;;;;;;;3.13;3.03;;;8.70;99.90;;;;;;6247375;23;20179;-72
2023/04/17 14:57:46;;;;;;;3.38;3.28;;;8.60;99.90;;;;;;6250672;22;20247;-73
2023/04/17 15:00:14;;;;;;;3.35;3.20;;;8.50;99.90;;;;;;6256271;23;20182;-72
2023/04/17 15:02:42;;;;;;;3.35;3.25;;;8.40;99.90;;;;;;6254030;22;20176;-72
2023/04/17 15:05:09;;;;;;;2.95;2.85;;;8.30;99.90;;;;;;6246803;23;20176;-72
2023/04/17 15:07:36;;;;;;;2.88;2.67;;;8.30;99.90;;;;;;6246403;22;20233;-72
2023/04/17 15:10:03;;;;;;;2.63;2.53;;;8.20;99.90;;;;;;6246347;23;20196;-72
2023/04/17 15:12:30;;;;;;;2.90;2.80;;;8.00;99.90;;;;;;6246587;22;20176;-71
2023/04/17 15:14:56;;;;;;;3.80;3.50;;;8.00;99.90;;;;;;6246376;23;20176;-71
2023/04/17 15:17:23;;;;;;;3.78;3.58;;;7.90;99.90;;;;;;6247077;22;20172;-71
2023/04/17 15:19:53;;;;;;;3.58;3.28;;;7.80;99.90;;;;;;6247039;23;20243;-71
2023/04/17 15:22:20;;;;;;;4.25;3.90;;;7.70;99.90;;;;;;6248228;23;20184;-71
2023/04/17 15:24:47;;;;;;;4.25;3.97;;;7.60;99.90;;;;;;6248456;23;20183;-71
2023/04/17 15:27:13;;;;;;;3.60;3.40;;;7.50;99.90;;;;;;6247788;23;20661;-71
2023/04/17 15:29:41;;;;;;;3.95;3.75;;;7.50;99.90;;;;;;6248181;22;20196;-71
2023/04/17 15:32:07;;;;;;;4.30;4.00;;;7.40;99.90;;;;;;6247794;23;20540;-71
2023/04/17 15:34:34;;;;;;;3.35;3.15;;;7.30;99.90;;;;;;6247671;23;20494;-70
2023/04/17 15:37:02;;;;;;;3.40;3.20;;;7.10;99.90;;;;;;6248094;23;20179;-70
2023/04/17 15:39:29;;;;;;;3.00;2.90;;;7.00;99.90;;;;;;6248676;22;20684;-69
2023/04/17 15:41:57;;;;;;;3.72;3.47;;;6.90;99.90;;;;;;6248193;23;20176;-70
2023/04/17 15:44:24;;;;;;;4.07;3.72;;;6.90;99.90;;;;;;6247743;23;20602;-71
2023/04/17 15:46:51;;;;;;;3.75;3.40;;;7.00;99.90;;;;;;6248646;23;20175;-72
2023/04/17 15:49:18;;;;;;;4.00;3.55;;;6.80;99.90;;;;;;6247797;22;20203;-71
2023/04/17 15:51:44;;;;;;;6.13;4.00;;;6.70;99.90;;;;;;6248052;23;20176;-71
2023/04/17 15:54:13;;;;;;;5.55;4.00;;;6.70;99.90;;;;;;6247875;23;20180;-71
2023/04/17 15:56:40;;;;;;;6.05;4.50;;;6.70;99.90;;;;;;6247863;23;20234;-70
2023/04/17 15:59:06;;;;;;;4.72;3.45;;;6.70;99.90;;;;;;6247612;22;20192;-70
2023/04/17 16:01:33;;;;;;;4.40;3.88;;;6.60;99.90;;;;;;6247686;23;20172;-70
2023/04/17 16:04:00;;;;;;;3.35;3.10;;;6.50;99.90;;;;;;6247946;23;20186;-69
2023/04/17 16:06:27;;;;;;;3.38;3.17;;;6.40;99.90;;;;;;6248316;23;20210;-69
2023/04/17 16:08:54;;;;;;;3.03;2.83;;;6.40;99.90;;;;;;6249294;22;20196;-69
2023/04/17 16:11:22;;;;;;;2.63;2.53;;;6.40;99.90;;;;;;6248284;23;20230;-69
2023/04/17 16:13:49;;;;;;;2.38;2.20;;;6.50;99.90;;;;;;6248012;23;20172;-69
2023/04/17 16:16:15;;;;;;;2.60;2.50;;;6.50;99.90;;;;;;6247937;23;20183;-71
2023/04/17 16:18:42;;;;;;;3.30;3.10;;;6.50;99.90;;;;;;6248087;22;20196;-69
2023/04/17 16:21:10;;;;;;;3.92;3.50;;;6.30;99.90;;;;;;6247672;23;20529;-69
2023/04/17 16:23:38;;;;;;;3.05;2.90;;;6.30;99.90;;;;;;6247929;23;20172;-69
2023/04/17 16:26:05;;;;;;;3.80;3.50;;;6.40;99.90;;;;;;6248067;23;20176;-69
2023/04/17 16:28:33;;;;;;;3.42;3.17;;;6.30;99.90;;;;;;6247482;22;20287;-69
2023/04/17 16:31:00;;;;;;;2.65;2.55;;;6.30;99.90;;;;;;6247282;23;20183;-69
2023/04/17 16:33:27;;;;;;;2.33;2.22;;;6.50;99.90;;;;;;6247462;23;20179;-69
2023/04/17 16:35:53;;;;;;;2.53;2.40;;;6.60;99.90;;;;;;6248001;23;20183;-69
2023/04/17 16:38:20;;;;;;;2.10;2.10;;;6.70;99.90;;;;;;6246809;22;20207;-69
2023/04/17 16:40:47;;;;;;;3.90;2.63;;;6.80;99.90;;;;;;6247066;23;20517;-69
2023/04/17 16:43:13;;;;;;;3.05;2.88;;;6.70;99.90;;;;;;6247389;23;20186;-69
2023/04/17 16:45:43;;;;;;;3.22;3.03;;;6.70;99.90;;;;;;6247377;23;20172;-70
2023/04/17 16:48:10;;;;;;;3.80;3.50;;;6.70;99.90;;;;;;6247399;22;20258;-70
2023/04/17 16:50:37;;;;;;;3.13;2.92;;;6.60;99.90;;;;;;6246867;23;20687;-70
2023/04/17 16:53:04;;;;;;;3.00;2.80;;;6.70;99.90;;;;;;6247410;22;20214;-70
2023/04/17 16:55:30;;;;;;;3.47;3.17;;;6.80;99.90;;;;;;6247407;23;20172;-69
2023/04/17 16:57:59;;;;;;;2.80;2.60;;;6.70;99.90;;;;;;6247183;22;20200;-71
2023/04/17 17:00:25;;;;;;;3.40;3.20;;;6.70;99.90;;;;;;6247259;23;20179;-71
2023/04/17 17:02:54;;;;;;;3.03;2.83;;;6.70;99.90;;;;;;6247083;22;20183;-70
2023/04/17 17:05:20;;;;;;;2.90;2.72;;;6.70;99.90;;;;;;6247140;23;20176;-70
2023/04/17 17:07:47;;;;;;;2.97;2.78;;;6.70;99.90;;;;;;6247169;22;20270;-70
2023/04/17 17:10:14;;;;;;;2.50;2.40;;;6.70;99.90;;;;;;6247216;23;20215;-71
2023/04/17 17:12:41;;;;;;;2.05;2.05;;;6.70;99.90;;;;;;6247379;23;20198;-70
2023/04/17 17:15:08;;;;;;;2.45;2.35;;;6.80;99.90;;;;;;6247280;23;20278;-70
2023/04/17 17:17:35;;;;;;;2.10;2.00;;;6.90;99.90;;;;;;6247610;22;20172;-69
2023/04/17 17:20:03;;;;;;;2.20;2.10;;;6.90;99.90;;;;;;6247387;23;20184;-70
2023/04/17 17:22:30;;;;;;;3.47;2.50;;;6.80;99.90;;;;;;6247169;23;20167;-70
2023/04/17 17:24:56;;;;;;;2.42;2.33;;;6.80;99.90;;;;;;6247038;23;20172;-70
2023/04/17 17:27:23;;;;;;;2.40;2.30;;;6.80;99.90;;;;;;6247033;22;20180;-70
2023/04/17 17:29:50;;;;;;;2.47;2.38;;;6.80;99.90;;;;;;6246841;23;20199;-70
2023/04/17 17:32:16;;;;;;;2.95;2.30;;;6.80;99.90;;;;;;6247109;23;20156;-70
2023/04/17 17:34:43;;;;;;;4.30;3.90;;;6.80;99.90;;;;;;6247010;23;20180;-70
2023/04/17 17:37:11;;;;;;;4.38;3.95;;;6.70;99.90;;;;;;6246832;23;20182;-72
2023/04/17 17:39:38;;;;;;;2.80;2.70;;;6.70;99.90;;;;;;6246895;22;20196;-71
2023/04/17 17:42:07;;;;;;;3.35;3.05;;;6.80;99.90;;;;;;6246753;23;20283;-71
2023/04/17 17:44:34;;;;;;;2.60;2.50;;;6.80;99.90;;;;;;6246911;23;20178;-70
2023/04/17 17:47:01;;;;;;;2.80;2.63;;;6.90;99.90;;;;;;6247120;23;20549;-72
2023/04/17 17:49:28;;;;;;;2.92;2.72;;;6.90;99.90;;;;;;6247176;22;20200;-69
2023/04/17 17:51:55;;;;;;;2.42;2.33;;;6.90;99.90;;;;;;6247609;23;20178;-70
2023/04/17 17:54:23;;;;;;;2.15;2.05;;;7.00;99.90;;;;;;6248907;23;20517;-69
2023/04/17 17:56:50;;;;;;;2.78;2.60;;;6.90;99.90;;;;;;6248137;23;20183;-69
2023/04/17 17:59:16;;;;;;;2.70;2.60;;;6.90;99.90;;;;;;6247382;22;20196;-70
2023/04/17 18:01:43;;;;;;;4.13;3.13;;;6.80;99.90;;;;;;6246719;23;20172;-70
2023/04/17 18:04:10;;;;;;;3.10;3.00;;;6.70;99.90;;;;;;6246389;23;20186;-70
2023/04/17 18:06:37;;;;;;;3.20;3.03;;;6.60;99.90;;;;;;6246216;23;20172;-69
2023/04/17 18:09:03;;;;;;;3.00;2.90;;;6.60;99.90;;;;;;6246506;22;20202;-71
2023/04/17 18:11:31;;;;;;;4.10;3.80;;;6.50;99.90;;;;;;6246823;23;20263;-69
2023/04/17 18:13:59;;;;;;;3.60;3.42;;;6.40;99.90;;;;;;6246678;23;20172;-69
2023/04/17 18:16:30;;;;;;;3.33;3.15;;;6.40;99.90;;;;;;6246183;23;20633;-70
2023/04/17 18:18:58;;;;;;;3.50;3.30;;;6.40;99.90;;;;;;6246422;22;20196;-69
2023/04/17 18:21:24;;;;;;;3.28;3.08;;;6.30;99.90;;;;;;6246355;23;20238;-69
2023/04/17 18:23:51;;;;;;;3.28;3.08;;;6.30;99.90;;;;;;6246376;23;20222;-70
2023/04/17 18:26:18;;;;;;;3.03;2.92;;;6.30;99.90;;;;;;6246449;23;20179;-69
2023/04/17 18:28:46;;;;;;;2.80;2.70;;;6.30;99.90;;;;;;6246796;22;20196;-70
2023/04/17 18:31:12;;;;;;;2.90;2.80;;;6.30;99.90;;;;;;6246556;23;20176;-73
2023/04/17 18:33:40;;;;;;;2.60;2.50;;;6.30;99.90;;;;;;6246526;23;20251;-72
2023/04/17 18:36:07;;;;;;;2.83;2.72;;;6.40;99.90;;;;;;6246390;23;20502;-72
2023/04/17 18:38:34;;;;;;;2.55;2.45;;;6.40;99.90;;;;;;6246213;22;20192;-73
2023/04/17 18:41:01;;;;;;;2.13;2.05;;;6.40;99.90;;;;;;6246378;23;20168;-73
2023/04/17 18:43:28;;;;;;;2.10;2.00;;;6.30;99.90;;;;;;6246426;23;20156;-74
2023/04/17 18:45:56;;;;;;;2.60;2.50;;;6.30;99.90;;;;;;6246360;23;20552;-73
2023/04/17 18:48:23;;;;;;;2.70;2.60;;;6.30;99.90;;;;;;6246169;22;20192;-73
2023/04/17 18:50:50;;;;;;;2.65;2.55;;;6.30;99.90;;;;;;6246217;23;20200;-72
2023/04/17 18:53:17;;;;;;;2.10;2.00;;;6.30;99.90;;;;;;6246389;23;20172;-73
2023/04/17 18:55:43;;;;;;;2.75;2.65;;;6.30;99.90;;;;;;6248455;23;20222;-73
2023/04/17 18:58:10;;;;;;;2.53;2.42;;;6.30;99.90;;;;;;6248396;22;20202;-72
2023/04/17 19:00:37;;;;;;;2.60;2.50;;;6.30;99.90;;;;;;6248549;23;20175;-70
2023/04/17 19:03:06;;;;;;;2.67;2.58;;;6.20;99.90;;;;;;6249054;22;20238;-72
2023/04/17 19:05:32;;;;;;;2.28;2.17;;;6.20;99.90;;;;;;6248598;22;20182;-71
2023/04/17 19:07:59;;;;;;;2.63;2.53;;;6.20;99.90;;;;;;6247955;22;20202;-70
2023/04/17 19:10:26;;;;;;;2.38;2.28;;;6.10;99.90;;;;;;6248356;23;20230;-71
2023/04/17 19:12:52;;;;;;;2.28;2.17;;;6.10;99.90;;;;;;6249495;23;20207;-71
2023/04/17 19:15:19;;;;;;;2.45;2.35;;;6.10;99.90;;;;;;6248593;23;20176;-72
2023/04/17 19:17:46;;;;;;;1.98;1.95;;;6.10;99.90;;;;;;6248275;22;20196;-71
2023/04/17 19:20:15;;;;;;;2.25;2.22;;;6.10;99.90;;;;;;6248072;23;20236;-70
2023/04/17 19:22:42;;;;;;;2.20;2.10;;;6.00;99.90;;;;;;6248363;23;20191;-70
2023/04/17 19:25:09;;;;;;;1.98;1.92;;;6.00;99.90;;;;;;6248860;23;20183;-71
2023/04/17 19:27:36;;;;;;;2.22;2.22;;;6.00;99.90;;;;;;6248145;22;20176;-72
2023/04/17 19:30:04;;;;;;;2.10;2.00;;;6.00;99.90;;;;;;6248231;22;20199;-70
2023/04/17 19:32:30;;;;;;;2.50;2.40;;;6.00;99.90;;;;;;6248223;22;20272;-71
2023/04/17 19:34:57;;;;;;;2.13;2.08;;;5.90;99.90;;;;;;6248116;23;20183;-69
2023/04/17 19:37:25;;;;;;;2.92;2.78;;;5.90;99.90;;;;;;6248688;22;20199;-69
2023/04/17 19:39:52;;;;;;;2.90;2.80;;;5.90;99.90;;;;;;6248249;23;20168;-75
2023/04/17 19:42:19;;;;;;;3.08;2.88;;;5.90;99.90;;;;;;6248868;23;20183;-70
2023/04/17 19:44:46;;;;;;;3.70;3.50;;;5.90;99.90;;;;;;6249651;23;20179;-70
2023/04/17 19:47:12;;;;;;;3.50;3.20;;;5.90;99.90;;;;;;6249682;22;20176;-71
2023/04/17 19:49:39;;;;;;;3.60;3.40;;;5.90;99.90;;;;;;6248130;22;20564;-71
2023/04/17 19:52:06;;;;;;;2.72;2.63;;;5.80;99.90;;;;;;6247946;23;20177;-71
2023/04/17 19:54:34;;;;;;;3.20;3.00;;;5.90;99.90;;;;;;6248453;23;20176;-71
2023/04/17 19:57:01;;;;;;;3.20;3.00;;;5.90;99.90;;;;;;6248386;23;20263;-71
2023/04/17 19:59:27;;;;;;;3.13;3.03;;;5.90;99.90;;;;;;6248156;22;20246;-71
2023/04/17 20:01:55;;;;;;;2.55;2.45;;;5.90;99.90;;;;;;6248107;23;20504;-69
2023/04/17 20:04:21;;;;;;;2.38;2.28;;;5.90;99.90;;;;;;6248375;23;20176;-70
2023/04/17 20:06:48;;;;;;;2.50;2.40;;;5.90;99.90;;;;;;6247195;23;20172;-70
2023/04/17 20:09:15;;;;;;;2.72;2.63;;;5.90;99.90;;;;;;6247868;22;20247;-69
2023/04/17 20:11:43;;;;;;;2.47;2.38;;;5.90;99.90;;;;;;6247991;23;20272;-69
2023/04/17 20:14:10;;;;;;;2.90;2.70;;;5.80;99.90;;;;;;6247901;23;20172;-69
2023/04/17 20:16:36;;;;;;;3.42;3.10;;;5.80;99.90;;;;;;6247768;23;20183;-69
2023/04/17 20:19:03;;;;;;;3.55;3.25;;;5.80;99.90;;;;;;6247667;22;20196;-70
2023/04/17 20:21:30;;;;;;;3.72;3.47;;;5.90;99.90;;;;;;6247263;23;20203;-69
2023/04/17 20:23:58;;;;;;;4.43;4.07;;;5.90;99.90;;;;;;6247538;23;20172;-69
2023/04/17 20:26:24;;;;;;;4.32;3.92;;;6.00;99.90;;;;;;6247871;23;20263;-71
2023/04/17 20:28:53;;;;;;;4.25;3.95;;;6.00;99.90;;;;;;6247637;22;20200;-70
2023/04/17 20:31:20;;;;;;;4.80;4.40;;;6.10;99.90;;;;;;6247485;22;20188;-69
2023/04/17 20:33:47;;;;;;;5.47;4.97;;;6.20;99.90;;;;;;6247739;23;20175;-69
2023/04/17 20:36:14;;;;;;;5.97;5.47;;;6.20;99.90;;;;;;6247542;23;20172;-70
2023/04/17 20:38:41;;;;;;;5.45;4.88;;;6.30;99.90;;;;;;6247571;22;20196;-70
2023/04/17 20:41:08;;;;;;;5.78;5.18;;;6.30;99.90;;;;;;6247186;23;20172;-70
2023/04/17 20:43:35;;;;;;;5.20;4.80;;;6.30;99.90;;;;;;6247488;23;20264;-70
2023/04/17 20:46:04;;;;;;;5.10;4.72;;;6.40;99.90;;;;;;6247740;23;20172;-70
2023/04/17 20:48:31;;;;;;;4.63;4.22;;;6.40;99.90;;;;;;6247361;22;20258;-70
2023/04/17 20:51:00;;;;;;;5.13;4.72;;;6.40;99.90;;;;;;6247189;23;20192;-69
2023/04/17 20:53:27;;;;;;;4.28;4.05;;;6.40;99.90;;;;;;6247042;23;20699;-68
2023/04/17 20:55:54;;;;;;;4.93;4.53;;;6.40;99.90;;;;;;6247111;23;20505;-68
2023/04/17 20:58:21;;;;;;;4.70;4.40;;;6.50;99.90;;;;;;6247420;22;20195;-68
2023/04/17 21:00:48;;;;;;;4.90;4.47;;;6.50;99.90;;;;;;6247014;23;20529;-69
2023/04/17 21:03:16;;;;;;;5.40;5.00;;;6.50;99.90;;;;;;6247629;23;20176;-69
2023/04/17 21:05:44;;;;;;;4.95;4.55;;;6.50;99.90;;;;;;6247191;23;20207;-69
2023/04/17 21:08:10;;;;;;;5.30;4.65;;;6.50;99.90;;;;;;6247502;22;20196;-69
2023/04/17 21:10:37;;;;;;;4.35;4.15;;;6.50;99.90;;;;;;6247183;23;20199;-68
2023/04/17 21:13:04;;;;;;;4.38;4.18;;;6.50;99.90;;;;;;6246760;23;20172;-68
2023/04/17 21:15:32;;;;;;;3.92;3.72;;;6.60;99.90;;;;;;6247269;23;20176;-69
2023/04/17 21:17:58;;;;;;;5.03;4.70;;;6.60;99.90;;;;;;6247103;22;20275;-68
2023/04/17 21:20:26;;;;;;;4.45;4.15;;;6.60;99.90;;;;;;6247151;23;20182;-68
2023/04/17 21:22:53;;;;;;;5.57;5.07;;;6.60;99.90;;;;;;6247114;23;20160;-68
2023/04/17 21:25:20;;;;;;;5.28;4.88;;;6.60;99.90;;;;;;6246922;23;20210;-68
2023/04/17 21:27:47;;;;;;;4.95;4.55;;;6.60;99.90;;;;;;6246885;22;20191;-70
2023/04/17 21:30:14;;;;;;;6.53;4.90;;;6.60;99.90;;;;;;6246509;23;20219;-68
